Uithoorn, Netherlands
Current Conditions -  °F | °C
As of 2:25 PM on Tuesday 21 Oct 2014 (Local Time) from EHAM Reporting Station
Scattered Clouds Scattered Clouds  
Wind Chill: 57°   Ceiling: Unl
Heat Index: 57°   Visibility: 6mi
Dew Point: 52°   Wind: 29mph
Humidity: 82%   Direction: 290°WNW
Pressure: 29.41"   Gusts: 45mph
Location:  52.24°N, 4.83°E
Report Text: EHAM 211225Z 29025G39KT 250V320 9999 FEW006 SCT012 SCT022CB14/11 Q0996 TEMPO 30025G40KT 4000
Loading
Personal Weather Stations






























Interactive Weather Map
Tropical Storm Tracking
New forecast layout! Learn more

10-Day Weather Forecast

Advertisements
Track Severe Weather on mobile